Time;durP1;ratioP1;P1;durP2;ratioP2;P2;SDS_P1;SDS_P2;PMS_P1;PMS_P2;Temp;Humidity;BMP_temperature;BMP_pressure;BME280_temperature;BME280_humidity;BME280_pressure;Samples;Min_cycle;Max_cycle;Signal;HPM_P1;HPM_P2
2022/05/03 00:02:35;;;;;;;45.85;26.62;;;;;;;8.10;64.36;100123.31;2234916;78;21065;-78
2022/05/03 00:06:02;;;;;;;41.83;26.17;;;;;;;8.06;64.38;100120.64;2240533;78;21466;-80
2022/05/03 00:09:07;;;;;;;46.70;28.95;;;;;;;7.94;64.89;100124.47;2237972;78;20954;-79
2022/05/03 00:12:16;;;;;;;46.13;27.60;;;;;;;7.83;64.95;100122.40;2238852;78;21559;-80
2022/05/03 00:15:20;;;;;;;48.40;29.63;;;;;;;7.71;64.88;100122.73;2243732;78;20977;-79
2022/05/03 00:18:22;;;;;;;47.20;28.62;;;;;;;7.63;65.03;100123.00;2231380;78;21424;-79
2022/05/03 00:21:24;;;;;;;45.98;28.50;;;;;;;7.59;65.19;100115.52;2218292;79;20950;-80
2022/05/03 00:24:25;;;;;;;51.13;28.42;;;;;;;7.59;65.21;100115.52;2261268;78;20992;-77
2022/05/03 00:27:28;;;;;;;49.53;28.73;;;;;;;7.56;65.32;100111.36;2213582;79;20935;-80
2022/05/03 00:30:31;;;;;;;58.33;29.23;;;;;;;7.49;65.71;100116.90;2212055;79;21031;-81
2022/05/03 00:33:33;;;;;;;47.65;28.17;;;;;;;7.44;65.72;100115.67;2207293;79;20936;-80
2022/05/03 00:36:35;;;;;;;48.05;28.20;;;;;;;7.43;65.62;100114.82;2237916;79;21010;-80
2022/05/03 00:39:36;;;;;;;47.98;27.90;;;;;;;7.37;65.80;100118.05;2215320;79;20973;-79
2022/05/03 00:42:48;;;;;;;49.10;28.02;;;;;;;7.39;66.16;100117.42;2255847;78;22267;-79
2022/05/03 00:46:01;;;;;;;42.00;27.07;;;;;;;7.44;66.19;100120.95;2218223;79;21037;-78
2022/05/03 00:49:25;;;;;;;48.73;28.92;;;;;;;7.45;66.11;100118.16;2240317;79;21046;-78
2022/05/03 00:53:10;;;;;;;42.80;27.85;;;;;;;7.50;66.34;100123.00;2214032;79;20982;-78
2022/05/03 00:56:37;;;;;;;49.45;28.35;;;;;;;7.50;66.34;100121.69;2262973;78;20967;-78
2022/05/03 00:59:55;;;;;;;56.77;28.73;;;;;;;7.52;66.35;100124.53;2241427;78;21468;-80
2022/05/03 01:03:18;;;;;;;54.30;28.57;;;;;;;7.49;66.48;100120.00;2238697;78;21499;-80
2022/05/03 01:06:31;;;;;;;43.83;28.60;;;;;;;7.51;66.66;100116.24;2241873;78;21033;-77
2022/05/03 01:09:39;;;;;;;48.65;29.25;;;;;;;7.49;66.70;100111.63;2243519;78;20964;-78
2022/05/03 01:12:49;;;;;;;50.52;30.85;;;;;;;7.48;66.87;100120.99;2242902;78;21549;-79
2022/05/03 01:15:58;;;;;;;43.83;27.80;;;;;;;7.48;67.00;100116.54;2238155;78;20978;-78
2022/05/03 01:19:19;;;;;;;50.43;30.50;;;;;;;7.49;66.85;100120.00;2232874;78;20970;-77
2022/05/03 01:23:11;;;;;;;52.17;32.08;;;;;;;7.52;66.98;100115.78;2242016;78;21041;-77
2022/05/03 01:26:40;;;;;;;45.90;29.30;;;;;;;7.56;67.05;100107.39;2236972;78;21021;-79
2022/05/03 01:29:45;;;;;;;49.05;29.23;;;;;;;7.52;67.10;100111.33;2234904;78;20969;-77
2022/05/03 01:32:51;;;;;;;45.38;28.12;;;;;;;7.47;67.24;100106.97;2242668;78;21036;-78
2022/05/03 01:35:56;;;;;;;52.48;29.77;;;;;;;7.42;67.07;100114.48;2243424;78;21041;-79
2022/05/03 01:39:30;;;;;;;47.90;30.20;;;;;;;7.38;67.30;100115.28;2242584;78;21486;-79
2022/05/03 01:43:11;;;;;;;46.85;28.17;;;;;;;7.37;67.49;100120.20;2238086;78;21069;-82
2022/05/03 01:46:23;;;;;;;46.85;28.62;;;;;;;7.36;67.52;100120.36;2238729;78;21033;-78
2022/05/03 01:53:31;;;;;;;49.27;28.20;;;;;;;7.36;67.41;100115.91;2237987;78;21042;-81
2022/05/03 01:56:58;;;;;;;43.35;26.33;;;;;;;7.34;67.42;100120.48;2235818;78;20995;-78
2022/05/03 02:00:09;;;;;;;39.78;26.50;;;;;;;7.33;67.23;100120.16;2236589;78;21028;-78
2022/05/03 02:03:29;;;;;;;43.70;28.75;;;;;;;7.33;67.24;100118.02;2242195;78;20990;-80
2022/05/03 02:07:10;;;;;;;39.35;26.62;;;;;;;7.29;67.35;100115.30;2240774;78;21473;-80
2022/05/03 02:10:34;;;;;;;42.27;28.57;;;;;;;7.23;67.40;100117.21;2238703;78;21041;-79
2022/05/03 02:17:52;;;;;;;40.28;26.45;;;;;;;7.23;67.69;100111.44;2220488;79;21014;-79
2022/05/03 02:21:16;;;;;;;49.05;29.67;;;;;;;7.19;67.99;100114.87;2220199;79;21017;-81
2022/05/03 02:24:52;;;;;;;40.28;27.75;;;;;;;7.16;67.96;100113.84;2223591;79;20979;-78
2022/05/03 02:28:20;;;;;;;43.23;26.68;;;;;;;7.12;67.87;100113.80;2219144;79;20957;-79
2022/05/03 02:31:55;;;;;;;37.38;26.77;;;;;;;7.10;67.68;100111.78;2223548;79;21019;-78
2022/05/03 02:35:06;;;;;;;41.53;27.48;;;;;;;7.04;67.61;100111.05;2216910;79;20992;-79
2022/05/03 02:38:07;;;;;;;50.28;30.90;;;;;;;6.97;68.06;100112.58;2222439;79;20939;-78
2022/05/03 02:41:11;;;;;;;40.25;27.90;;;;;;;6.91;68.15;100112.67;2217218;79;21039;-78
2022/05/03 02:44:13;;;;;;;46.20;29.05;;;;;;;6.86;68.11;100114.89;2223463;79;20945;-80
2022/05/03 02:47:45;;;;;;;40.67;26.75;;;;;;;6.78;68.27;100111.31;2212003;79;21067;-78
2022/05/03 02:50:59;;;;;;;42.33;27.07;;;;;;;6.75;68.32;100116.38;2224290;79;21017;-78
2022/05/03 02:54:06;;;;;;;38.98;26.12;;;;;;;6.70;68.53;100115.51;2221657;79;21552;-80
2022/05/03 02:57:40;;;;;;;43.73;26.85;;;;;;;6.71;68.66;100114.52;2222819;79;20991;-78
2022/05/03 03:04:46;;;;;;;49.33;28.32;;;;;;;6.74;68.87;100116.05;2221557;79;21010;-79
2022/05/03 03:08:02;;;;;;;47.15;29.32;;;;;;;6.69;69.37;100117.78;2225167;79;21572;-79
2022/05/03 03:11:07;;;;;;;43.65;27.35;;;;;;;6.69;69.49;100116.45;2255258;77;21022;-80
2022/05/03 03:14:21;;;;;;;43.85;28.25;;;;;;;6.68;69.57;100118.77;2252350;77;21008;-78
2022/05/03 03:17:28;;;;;;;36.03;25.35;;;;;;;6.68;69.60;100112.66;2257680;77;21029;-78
2022/05/03 03:20:31;;;;;;;41.40;25.57;;;;;;;6.67;69.36;100116.25;2256851;77;20975;-78
2022/05/03 03:23:34;;;;;;;39.25;26.05;;;;;;;6.63;69.24;100115.71;2260500;77;20987;-79
2022/05/03 03:26:38;;;;;;;39.50;26.35;;;;;;;6.60;69.26;100114.68;2208926;79;21054;-78
2022/05/03 03:29:40;;;;;;;29.98;22.10;;;;;;;6.60;69.27;100117.31;2237269;78;21011;-78
2022/05/03 03:32:51;;;;;;;35.80;23.20;;;;;;;6.53;69.14;100119.33;2229873;78;21016;-77
2022/05/03 03:35:54;;;;;;;;;;;;;;;6.44;69.23;100119.20;2242279;78;21034;-78
2022/05/03 03:38:55;;;;;;;36.50;23.02;;;;;;;6.44;69.34;100123.64;2230130;78;20313;-78
2022/05/03 03:42:02;;;;;;;33.83;23.83;;;;;;;6.49;69.47;100120.10;2240587;79;21004;-78
2022/05/03 03:45:08;;;;;;;52.50;28.77;;;;;;;6.57;69.64;100119.41;2239449;79;21013;-79
2022/05/03 03:48:10;;;;;;;45.55;28.27;;;;;;;6.58;69.48;100120.57;2239035;79;21446;-79
2022/05/03 03:51:14;;;;;;;40.00;23.70;;;;;;;6.62;69.37;100119.83;2240371;79;20989;-78
2022/05/03 03:54:15;;;;;;;38.25;22.00;;;;;;;6.72;69.53;100121.45;2239835;79;21112;-79
2022/05/03 03:57:20;;;;;;;29.48;21.87;;;;;;;6.86;69.48;100127.26;2243924;79;20971;-80
2022/05/03 04:00:21;;;;;;;30.15;20.65;;;;;;;7.05;69.56;100124.57;2238843;79;20978;-76
2022/05/03 04:03:25;;;;;;;32.85;21.15;;;;;;;7.24;69.37;100117.08;2238768;79;21127;-80
2022/05/03 04:06:26;;;;;;;35.95;22.98;;;;;;;7.40;69.13;100125.67;2235051;78;21492;-79
2022/05/03 04:09:29;;;;;;;29.98;20.48;;;;;;;7.68;69.21;100125.19;2218809;79;20989;-78
2022/05/03 04:12:30;;;;;;;30.68;22.13;;;;;;;8.00;69.05;100117.29;2225332;79;20993;-82
2022/05/03 04:15:36;;;;;;;27.13;20.40;;;;;;;8.37;68.85;100115.80;2219062;79;20986;-79
2022/05/03 04:18:47;;;;;;;29.60;21.20;;;;;;;8.68;68.55;100122.85;2217753;79;20997;-77
2022/05/03 04:21:48;;;;;;;28.70;20.20;;;;;;;8.95;68.17;100123.21;2230753;78;21014;-78
2022/05/03 04:24:49;;;;;;;26.82;20.85;;;;;;;9.20;67.78;100127.30;2239390;78;21005;-80
2022/05/03 04:27:50;;;;;;;24.45;18.73;;;;;;;9.54;67.88;100131.75;2234436;78;20970;-77
2022/05/03 04:30:51;;;;;;;32.08;21.12;;;;;;;9.93;67.41;100132.55;2214438;79;20985;-79
2022/05/03 04:33:56;;;;;;;27.40;20.68;;;;;;;10.24;66.96;100139.39;2258340;78;21014;-78
2022/05/03 04:36:58;;;;;;;27.27;20.30;;;;;;;10.46;66.43;100137.95;2219038;79;20977;-80
2022/05/03 04:39:59;;;;;;;33.95;21.17;;;;;;;10.77;66.31;100136.28;2219209;79;20998;-79
2022/05/03 04:43:00;;;;;;;68.15;33.55;;;;;;;11.18;65.99;100136.72;2222748;79;20975;-80
2022/05/03 04:46:01;;;;;;;105.35;44.55;;;;;;;11.49;65.43;100142.09;2217191;79;21462;-77
2022/05/03 04:49:03;;;;;;;104.97;43.70;;;;;;;11.84;64.88;100140.76;2238730;78;21048;-79
2022/05/03 04:52:05;;;;;;;50.03;25.57;;;;;;;12.16;64.51;100146.09;2215741;79;21041;-80
2022/05/03 04:55:08;;;;;;;22.07;14.35;;;;;;;12.45;63.60;100146.23;2224186;79;21062;-80
2022/05/03 04:58:10;;;;;;;23.62;15.05;;;;;;;12.74;62.81;100140.66;2239761;78;21094;-79
2022/05/03 05:01:12;;;;;;;17.85;13.00;;;;;;;13.08;62.66;100142.00;2234472;78;21044;-78
2022/05/03 05:04:13;;;;;;;17.85;12.50;;;;;;;13.56;62.14;100138.49;2240288;78;21021;-78
2022/05/03 05:07:14;;;;;;;15.75;11.05;;;;;;;13.81;61.44;100142.49;2243149;78;21021;-79
2022/05/03 05:10:26;;;;;;;14.05;10.23;;;;;;;14.20;60.17;100142.63;2223379;79;21437;-80
2022/05/03 05:13:28;;;;;;;13.70;9.93;;;;;;;14.64;59.54;100151.47;2218434;79;21040;-81
2022/05/03 05:16:29;;;;;;;15.72;10.45;;;;;;;15.10;58.50;100141.66;2222154;79;20979;-80
2022/05/03 05:19:30;;;;;;;19.00;12.07;;;;;;;15.31;57.88;100141.56;2222539;79;21687;-79
2022/05/03 05:22:32;;;;;;;16.50;12.68;;;;;;;15.77;57.32;100139.67;2220839;79;20974;-79
2022/05/03 05:25:33;;;;;;;21.65;13.20;;;;;;;15.96;56.81;100137.25;2217712;79;20966;-79
2022/05/03 05:28:35;;;;;;;16.60;11.05;;;;;;;15.85;56.45;100138.16;2217791;79;20970;-79
2022/05/03 05:31:37;;;;;;;15.28;10.80;;;;;;;15.98;56.21;100141.38;2213469;79;21033;-80
2022/05/03 05:34:38;;;;;;;19.65;11.88;;;;;;;16.10;54.30;100142.43;2237915;79;21504;-80
2022/05/03 05:37:39;;;;;;;17.12;12.03;;;;;;;15.88;54.81;100145.79;2218993;79;20961;-78
2022/05/03 05:40:41;;;;;;;18.17;13.05;;;;;;;15.81;53.75;100146.78;2223701;79;21458;-81
2022/05/03 05:43:43;;;;;;;15.10;11.35;;;;;;;15.53;53.79;100145.50;2225060;79;20990;-78
2022/05/03 05:46:44;;;;;;;18.70;11.43;;;;;;;15.43;53.33;100149.37;2217982;79;21022;-80
2022/05/03 05:49:45;;;;;;;15.88;12.00;;;;;;;15.62;53.44;100155.00;2225963;79;20979;-80
2022/05/03 05:56:07;;;;;;;15.25;11.60;;;;;;;15.72;52.36;100148.81;2219550;79;20996;-77
2022/05/03 05:59:09;;;;;;;15.83;10.78;;;;;;;15.39;51.88;100157.45;2210508;79;21043;-80
2022/05/03 06:02:10;;;;;;;23.22;12.25;;;;;;;15.12;52.40;100163.65;2241085;78;21424;-79
2022/05/03 06:05:11;;;;;;;16.02;9.95;;;;;;;15.00;52.47;100160.17;2240499;78;20957;-78
2022/05/03 06:08:12;;;;;;;17.65;10.88;;;;;;;15.30;52.48;100159.98;2231351;78;20986;-78
2022/05/03 06:11:14;;;;;;;19.32;11.43;;;;;;;15.59;52.08;100163.42;2237223;78;21016;-78
2022/05/03 06:14:15;;;;;;;14.90;9.18;;;;;;;15.54;51.54;100165.38;2242224;78;20938;-80
2022/05/03 06:17:16;;;;;;;13.43;10.45;;;;;;;15.44;51.62;100163.55;2237350;78;21044;-80
2022/05/03 06:20:17;;;;;;;11.53;9.98;;;;;;;15.34;51.34;100168.42;2235748;78;21428;-79
2022/05/03 06:23:18;;;;;;;13.70;10.53;;;;;;;15.84;51.85;100161.09;2237997;78;20934;-81
2022/05/03 06:26:19;;;;;;;18.45;11.03;;;;;;;16.01;51.14;100161.56;2235826;78;20977;-80
2022/05/03 06:29:20;;;;;;;12.30;9.08;;;;;;;16.02;50.75;100165.39;2237380;78;21030;-79
2022/05/03 06:32:21;;;;;;;20.32;10.82;;;;;;;16.44;50.71;100162.58;2238555;78;21531;-79
2022/05/03 06:35:22;;;;;;;14.25;10.20;;;;;;;16.84;49.80;100170.19;2239486;78;21054;-79
2022/05/03 06:38:23;;;;;;;15.83;9.73;;;;;;;16.80;49.42;100169.75;2237921;78;20947;-79
2022/05/03 06:41:25;;;;;;;17.07;9.55;;;;;;;16.89;49.65;100159.64;2234419;78;21524;-82
2022/05/03 06:44:26;;;;;;;16.90;10.03;;;;;;;17.22;49.45;100163.63;2243197;78;20923;-82
2022/05/03 06:47:27;;;;;;;12.15;9.48;;;;;;;17.55;49.34;100168.63;2262914;77;20957;-79
2022/05/03 06:50:32;;;;;;;13.53;9.00;;;;;;;18.04;48.68;100167.20;2255589;77;20950;-82
2022/05/03 06:53:33;;;;;;;13.95;8.78;;;;;;;18.37;47.74;100168.36;2257789;77;20968;-82
2022/05/03 06:56:38;;;;;;;12.75;8.33;;;;;;;18.46;46.98;100169.73;2258441;78;20989;-82
2022/05/03 06:59:39;;;;;;;11.35;7.08;;;;;;;18.68;47.16;100168.86;2255090;77;21032;-79
2022/05/03 07:02:41;;;;;;;9.73;7.08;;;;;;;19.04;46.29;100166.83;2255800;77;21006;-80
2022/05/03 07:05:43;;;;;;;11.10;7.05;;;;;;;19.18;45.65;100170.75;2256610;77;21074;-81
2022/05/03 07:08:44;;;;;;;11.15;7.33;;;;;;;19.38;45.66;100170.02;2237616;79;21021;-80
2022/05/03 07:11:45;;;;;;;9.40;7.42;;;;;;;19.51;44.69;100177.11;2233457;78;21069;-81
2022/05/03 07:14:47;;;;;;;11.38;7.53;;;;;;;19.55;44.58;100176.98;2229621;79;20951;-80
2022/05/03 07:24:27;;;;;;;;;;;;;;;20.38;43.30;100186.30;2236857;79;21022;-82
2022/05/03 07:27:29;;;;;;;10.55;6.70;;;;;;;20.54;42.16;100182.16;2231460;79;20199;-79
2022/05/03 07:30:30;;;;;;;9.60;7.20;;;;;;;20.42;42.39;100179.94;2232101;79;20998;-81
2022/05/03 07:33:32;;;;;;;11.63;7.55;;;;;;;20.26;40.69;100180.05;2230888;79;21026;-80
2022/05/03 07:36:33;;;;;;;8.65;6.83;;;;;;;19.99;40.98;100178.23;2232335;79;21040;-82
2022/05/03 07:39:34;;;;;;;11.48;6.40;;;;;;;19.81;40.07;100190.67;2233831;79;21005;-82
2022/05/03 07:42:35;;;;;;;12.78;8.28;;;;;;;19.94;41.15;100192.39;2232977;79;21246;-82
2022/05/03 07:45:37;;;;;;;10.90;7.90;;;;;;;20.24;41.08;100196.96;2233792;79;21007;-82
2022/05/03 07:48:38;;;;;;;8.43;6.75;;;;;;;20.25;41.66;100197.28;2235638;79;21500;-81
2022/05/03 07:51:42;;;;;;;9.33;6.60;;;;;;;20.33;40.94;100199.13;2237399;79;20991;-80
2022/05/03 07:54:44;;;;;;;8.25;6.25;;;;;;;20.46;41.38;100198.09;2230750;79;21001;-81
2022/05/03 07:57:45;;;;;;;7.58;6.25;;;;;;;20.88;40.52;100197.29;2237494;79;21009;-82
2022/05/03 08:00:48;;;;;;;6.92;5.78;;;;;;;21.10;39.97;100200.25;2229889;79;20997;-81
2022/05/03 08:03:49;;;;;;;7.45;6.05;;;;;;;21.20;38.66;100200.47;2237511;79;21029;-82
2022/05/03 08:06:50;;;;;;;9.15;6.50;;;;;;;21.07;38.98;100202.06;2227853;79;21041;-81
2022/05/03 08:09:53;;;;;;;7.62;5.58;;;;;;;21.22;39.15;100198.36;2220891;79;21039;-81
2022/05/03 08:12:55;;;;;;;5.95;5.00;;;;;;;21.67;38.36;100199.11;2221839;79;20963;-80
2022/05/03 08:15:56;;;;;;;8.28;5.70;;;;;;;21.46;37.53;100194.62;2218535;79;21590;-80
2022/05/03 08:18:58;;;;;;;8.10;4.37;;;;;;;21.20;37.36;100204.01;2223166;79;21044;-80
2022/05/03 08:21:59;;;;;;;5.75;5.12;;;;;;;21.40;37.40;100196.09;2222923;79;21047;-80
2022/05/03 08:25:01;;;;;;;7.70;5.40;;;;;;;21.30;36.69;100203.41;2227480;79;20995;-81
2022/05/03 08:28:03;;;;;;;10.60;6.00;;;;;;;21.54;36.89;100205.61;2223166;79;21108;-81
2022/05/03 08:31:05;;;;;;;9.93;5.60;;;;;;;21.60;36.50;100208.70;2223167;79;21531;-80
2022/05/03 08:34:07;;;;;;;6.80;5.10;;;;;;;21.97;36.95;100210.27;2219011;79;21033;-81
2022/05/03 08:43:48;;;;;;;9.10;5.75;;;;;;;21.79;36.28;100208.00;2220299;79;21025;-81
2022/05/03 08:46:51;;;;;;;11.12;5.58;;;;;;;22.04;36.69;100205.53;2217027;79;20947;-82
2022/05/03 08:50:03;;;;;;;9.38;5.58;;;;;;;22.22;36.29;100210.80;2219467;79;21045;-78
2022/05/03 08:53:05;;;;;;;6.87;5.58;;;;;;;22.28;36.06;100208.47;2240636;79;21104;-80
2022/05/03 08:56:07;;;;;;;9.75;6.03;;;;;;;22.44;35.45;100208.74;2236593;78;21066;-81
2022/05/03 08:59:09;;;;;;;8.40;5.65;;;;;;;22.44;35.70;100197.92;2235783;78;21022;-79
2022/05/03 09:02:12;;;;;;;6.85;5.10;;;;;;;23.00;35.41;100200.25;2235173;78;21455;-78
2022/05/03 09:05:14;;;;;;;6.92;5.65;;;;;;;22.92;35.54;100200.63;2236500;78;21028;-78
2022/05/03 09:08:23;;;;;;;10.50;5.30;;;;;;;23.21;35.57;100198.16;2224875;78;21019;-80
2022/05/03 09:11:24;;;;;;;8.93;5.90;;;;;;;23.39;34.48;100192.17;2219810;78;20984;-82
2022/05/03 09:14:42;;;;;;;5.85;5.10;;;;;;;23.53;35.13;100197.51;2229682;78;20997;-79
2022/05/03 09:17:46;;;;;;;7.03;6.05;;;;;;;23.76;34.41;100196.48;2219318;78;21035;-80
2022/05/03 09:24:08;;;;;;;;;;;;;;;23.84;34.54;100192.52;2223611;78;21516;-80
2022/05/03 09:27:19;;;;;;;8.23;5.15;;;;;;;24.33;34.11;100192.53;2218794;78;20147;-80
2022/05/03 09:30:21;;;;;;;7.30;4.72;;;;;;;24.52;33.25;100182.95;2212797;78;20970;-79
2022/05/03 09:33:26;;;;;;;6.00;4.95;;;;;;;24.65;33.10;100179.56;2222178;78;21480;-79
2022/05/03 09:36:29;;;;;;;5.67;5.00;;;;;;;25.04;32.89;100171.98;2220907;78;20952;-80
2022/05/03 09:39:34;;;;;;;7.75;5.33;;;;;;;25.03;31.93;100174.41;2211011;78;21015;-79
2022/05/03 09:42:38;;;;;;;9.20;5.67;;;;;;;25.13;32.34;100175.03;2216110;78;21464;-80
2022/05/03 09:45:40;;;;;;;9.40;5.08;;;;;;;25.34;32.56;100174.62;2219876;78;20999;-79
2022/05/03 09:48:51;;;;;;;6.65;4.95;;;;;;;25.37;32.22;100177.66;2225681;78;21560;-79
2022/05/03 09:51:53;;;;;;;8.48;5.37;;;;;;;25.13;32.16;100174.48;2225294;78;21048;-78
2022/05/03 09:55:04;;;;;;;6.58;5.08;;;;;;;25.24;31.92;100166.71;2216017;78;21591;-79
2022/05/03 09:58:10;;;;;;;7.15;5.37;;;;;;;25.22;31.56;100172.94;2226076;78;21034;-78
2022/05/03 10:01:14;;;;;;;8.43;4.70;;;;;;;25.07;31.95;100166.58;2223640;78;20927;-80
2022/05/03 10:04:15;;;;;;;6.78;5.20;;;;;;;25.14;31.77;100161.73;2226921;78;20994;-80
2022/05/03 10:07:18;;;;;;;6.50;5.00;;;;;;;24.69;31.22;100164.39;2231898;78;21529;-80
2022/05/03 10:10:23;;;;;;;6.10;4.90;;;;;;;24.62;30.89;100161.09;2229504;78;21032;-78
2022/05/03 10:13:26;;;;;;;11.90;5.03;;;;;;;24.08;31.03;100160.02;2225928;78;20985;-79
2022/05/03 10:23:28;;;;;;;7.97;5.10;;;;;;;23.21;32.44;100158.91;2139729;81;21042;-81
2022/05/03 10:26:58;;;;;;;7.53;5.50;;;;;;;23.24;31.63;100154.34;2136688;81;20989;-79
2022/05/03 10:30:20;;;;;;;6.45;4.60;;;;;;;22.98;32.42;100159.12;2205883;79;21004;-80
2022/05/03 10:33:28;;;;;;;6.28;4.53;;;;;;;22.60;32.35;100159.28;2200674;79;21033;-79
2022/05/03 10:36:36;;;;;;;6.72;4.95;;;;;;;22.58;32.94;100151.94;2196828;79;21033;-80
2022/05/03 10:40:03;;;;;;;7.05;5.05;;;;;;;22.51;32.71;100148.59;2200479;79;21345;-79
2022/05/03 10:43:26;;;;;;;6.60;4.80;;;;;;;22.79;33.40;100145.80;2202484;79;21027;-78
2022/05/03 10:46:27;;;;;;;7.47;4.42;;;;;;;22.96;32.90;100140.95;2212658;79;20962;-81
2022/05/03 10:49:30;;;;;;;6.53;4.50;;;;;;;22.82;32.71;100135.84;2203400;79;20942;-81
2022/05/03 10:52:32;;;;;;;5.30;4.62;;;;;;;22.47;32.24;100136.11;2199072;79;20975;-80
2022/05/03 10:55:41;;;;;;;6.05;4.80;;;;;;;22.00;33.09;100138.20;2202326;79;21016;-80
2022/05/03 10:59:08;;;;;;;9.68;4.53;;;;;;;21.54;33.50;100138.63;2199464;79;21014;-79
2022/05/03 11:02:10;;;;;;;4.30;3.75;;;;;;;21.45;33.14;100136.82;2194290;79;21031;-79
2022/05/03 11:05:15;;;;;;;5.60;4.50;;;;;;;21.38;33.25;100132.10;2203290;79;20962;-81
2022/05/03 11:08:18;;;;;;;7.58;4.50;;;;;;;21.30;33.54;100137.30;2218170;78;21017;-78
2022/05/03 11:11:43;;;;;;;5.85;4.75;;;;;;;21.28;33.45;100129.95;2227253;78;21013;-79
2022/05/03 11:14:46;;;;;;;7.60;4.42;;;;;;;21.36;33.42;100125.55;2228708;78;21100;-79
2022/05/03 11:17:48;;;;;;;7.00;4.58;;;;;;;21.20;33.21;100125.77;2228864;78;21061;-79
2022/05/03 11:20:50;;;;;;;5.45;4.17;;;;;;;21.31;33.80;100130.83;2222742;78;20987;-80
2022/05/03 11:23:54;;;;;;;7.55;4.20;;;;;;;21.24;33.62;100130.15;2221388;78;21314;-77
2022/05/03 11:27:02;;;;;;;7.67;4.40;;;;;;;21.12;33.93;100127.97;2230630;78;21440;-79
2022/05/03 11:30:08;;;;;;;4.35;3.80;;;;;;;20.85;33.83;100120.38;2226678;78;20974;-81
2022/05/03 11:33:10;;;;;;;6.83;4.17;;;;;;;20.58;33.49;100121.33;2225158;78;20985;-80
2022/05/03 11:36:12;;;;;;;5.37;4.12;;;;;;;20.32;33.09;100117.16;2208520;78;20976;-81
2022/05/03 11:39:14;;;;;;;6.03;3.90;;;;;;;20.07;32.90;100118.67;2233944;78;20960;-81
2022/05/03 11:42:17;;;;;;;7.85;4.70;;;;;;;19.86;33.62;100125.39;2231295;78;21025;-80
2022/05/03 11:45:19;;;;;;;8.30;4.60;;;;;;;19.74;34.04;100122.65;2225328;78;20994;-79
2022/05/03 11:48:21;;;;;;;6.65;4.17;;;;;;;19.57;34.00;100129.14;2227591;78;21487;-78
2022/05/03 11:58:09;;;;;;;12.95;4.97;;;;;;;19.52;34.64;100118.22;2227938;78;21033;-80
2022/05/03 12:01:20;;;;;;;7.05;4.50;;;;;;;19.58;34.84;100121.35;2225207;78;21013;-82
2022/05/03 12:04:22;;;;;;;7.55;4.58;;;;;;;19.76;35.21;100121.87;2227609;78;21029;-78
2022/05/03 12:07:24;;;;;;;8.38;4.10;;;;;;;19.86;35.17;100117.31;2233808;78;20972;-79
2022/05/03 12:10:38;;;;;;;5.90;4.72;;;;;;;20.02;35.23;100122.56;2257484;77;21464;-80
2022/05/03 12:13:40;;;;;;;7.17;4.95;;;;;;;20.36;35.52;100110.27;2224310;79;21508;-80
2022/05/03 12:16:42;;;;;;;8.95;4.55;;;;;;;20.48;34.93;100108.95;2222364;79;20986;-79
2022/05/03 12:19:43;;;;;;;5.95;4.42;;;;;;;20.45;34.76;100103.48;2215909;79;21020;-80
2022/05/03 12:22:45;;;;;;;5.50;4.78;;;;;;;20.50;34.99;100105.50;2223940;79;21537;-81
2022/05/03 12:25:53;;;;;;;6.83;4.70;;;;;;;20.51;35.01;100102.55;2220420;79;21007;-80
2022/05/03 12:28:58;;;;;;;5.28;4.67;;;;;;;20.57;34.95;100106.23;2221496;79;20987;-80
2022/05/03 12:32:05;;;;;;;5.85;4.60;;;;;;;20.64;35.05;100098.86;2211091;79;21013;-80
2022/05/03 12:35:07;;;;;;;6.30;4.45;;;;;;;20.69;35.05;100103.53;2206143;79;20977;-80
2022/05/03 12:38:13;;;;;;;5.87;4.75;;;;;;;20.84;34.85;100093.12;2205810;79;21002;-83
2022/05/03 12:41:29;;;;;;;7.08;4.87;;;;;;;20.86;34.41;100090.99;2218272;79;21041;-79
2022/05/03 12:44:33;;;;;;;7.62;4.12;;;;;;;20.89;34.53;100088.36;2217757;79;20967;-81
2022/05/03 12:47:35;;;;;;;6.92;4.47;;;;;;;20.89;34.48;100087.85;2223484;79;21005;-79
2022/05/03 12:50:37;;;;;;;7.62;4.62;;;;;;;20.85;34.70;100083.97;2224486;79;21046;-81
2022/05/03 12:53:42;;;;;;;4.90;4.30;;;;;;;20.88;34.91;100081.33;2222221;79;20927;-79
2022/05/03 13:00:06;;;;;;;5.12;4.42;;;;;;;20.82;34.34;100073.66;2218172;79;21524;-78
2022/05/03 13:03:10;;;;;;;10.43;3.92;;;;;;;20.85;34.31;100075.88;2220420;79;22371;-81
2022/05/03 13:06:11;;;;;;;5.50;4.80;;;;;;;20.85;34.66;100073.18;2221355;79;21005;-79
2022/05/03 13:09:13;;;;;;;5.70;4.50;;;;;;;20.95;34.57;100062.63;2204214;79;21052;-81
2022/05/03 13:12:14;;;;;;;6.65;4.30;;;;;;;20.91;34.37;100062.80;2213932;79;21033;-80
2022/05/03 13:15:16;;;;;;;9.70;4.70;;;;;;;20.90;34.36;100046.33;2204588;79;21019;-79
2022/05/03 13:18:18;;;;;;;8.20;4.20;;;;;;;21.09;34.19;100059.16;2203767;79;20989;-82
2022/05/03 13:21:21;;;;;;;4.22;3.65;;;;;;;21.12;33.93;100057.83;2209135;79;21599;-82
2022/05/03 13:24:24;;;;;;;6.50;3.83;;;;;;;21.22;34.02;100057.52;2210971;79;21056;-84
2022/05/03 13:27:26;;;;;;;6.25;4.35;;;;;;;21.08;33.64;100056.68;2213115;79;21030;-80
2022/05/03 13:30:28;;;;;;;5.62;4.40;;;;;;;20.83;33.90;100051.02;2210875;79;20950;-77
2022/05/03 13:33:29;;;;;;;8.10;5.22;;;;;;;20.53;34.10;100053.32;2200813;79;21043;-81
2022/05/03 13:43:10;;;;;;;7.70;3.90;;;;;;;20.08;34.80;100053.81;2209901;79;21573;-81
2022/05/03 13:46:12;;;;;;;8.25;4.40;;;;;;;20.09;35.09;100051.41;2210618;79;21009;-78
2022/05/03 13:49:14;;;;;;;8.00;4.25;;;;;;;20.19;35.23;100052.70;2204085;79;21130;-80
2022/05/03 13:52:15;;;;;;;5.35;4.53;;;;;;;20.31;35.01;100050.87;2205625;79;20979;-80
2022/05/03 13:55:17;;;;;;;7.58;4.53;;;;;;;20.40;34.81;100040.03;2203948;79;20979;-80
2022/05/03 13:58:18;;;;;;;4.62;4.20;;;;;;;20.46;34.90;100038.28;2209102;79;21369;-80
2022/05/03 14:01:21;;;;;;;8.95;4.12;;;;;;;20.47;34.52;100046.14;2212610;79;21477;-79
2022/05/03 14:04:23;;;;;;;6.05;4.40;;;;;;;20.45;34.30;100038.00;2202016;79;21012;-79
2022/05/03 14:07:25;;;;;;;10.40;4.22;;;;;;;20.35;34.73;100039.38;2202329;78;21545;-79
2022/05/03 14:10:30;;;;;;;6.92;4.50;;;;;;;20.35;34.72;100040.72;2224730;79;21006;-80
2022/05/03 14:13:30;;;;;;;5.97;4.70;;;;;;;20.27;34.32;100036.20;2213238;79;21789;-81
2022/05/03 14:16:32;;;;;;;6.67;4.15;;;;;;;20.18;35.11;100042.99;2211255;79;20993;-80
2022/05/03 14:19:33;;;;;;;5.60;4.70;;;;;;;20.07;34.87;100035.17;2222167;79;21060;-81
2022/05/03 14:22:38;;;;;;;7.30;5.67;;;;;;;19.98;35.50;100041.95;2221969;79;20998;-78
2022/05/03 14:25:40;;;;;;;8.75;5.60;;;;;;;19.95;35.87;100032.99;2217962;79;20952;-79
2022/05/03 14:28:44;;;;;;;4.53;4.08;;;;;;;19.86;36.29;100041.92;2216321;79;20968;-80
2022/05/03 14:31:45;;;;;;;6.90;4.90;;;;;;;19.76;35.99;100044.34;2211274;79;22098;-80
2022/05/03 14:34:47;;;;;;;8.70;4.83;;;;;;;19.67;36.10;100046.53;2215784;79;21070;-79
2022/05/03 14:37:49;;;;;;;6.12;4.08;;;;;;;19.67;36.16;100047.35;2215123;79;20982;-80
2022/05/03 14:40:55;;;;;;;7.35;4.92;;;;;;;19.64;36.19;100045.09;2219223;79;21008;-79
2022/05/03 14:43:57;;;;;;;5.53;4.70;;;;;;;19.74;36.43;100044.59;2212111;79;20950;-81
2022/05/03 14:46:59;;;;;;;8.15;5.42;;;;;;;19.78;36.32;100036.33;2213305;79;21017;-80
2022/05/03 14:50:00;;;;;;;6.70;4.25;;;;;;;19.81;36.34;100035.88;2225438;79;21578;-81
2022/05/03 14:53:04;;;;;;;7.40;5.17;;;;;;;19.90;36.41;100041.22;2211907;79;21629;-79
2022/05/03 15:02:56;;;;;;;10.65;4.75;;;;;;;20.06;36.40;100034.36;2219941;79;20971;-81
2022/05/03 15:05:58;;;;;;;7.42;5.62;;;;;;;20.20;36.35;100043.59;2215798;79;21003;-81
2022/05/03 15:09:01;;;;;;;6.62;4.92;;;;;;;20.22;36.29;100036.11;2234583;77;21381;-77
2022/05/03 15:12:03;;;;;;;10.98;6.25;;;;;;;20.26;36.18;100034.58;2239788;79;20961;-80
2022/05/03 15:15:06;;;;;;;8.38;5.40;;;;;;;20.19;36.32;100037.39;2238334;78;20940;-80
2022/05/03 15:18:08;;;;;;;7.78;4.92;;;;;;;20.12;36.31;100037.47;2235503;78;20986;-81
2022/05/03 15:21:10;;;;;;;5.95;4.65;;;;;;;20.02;36.41;100027.81;2240307;78;21033;-83
2022/05/03 15:27:33;;;;;;;5.62;5.12;;;;;;;19.85;36.47;100032.19;2234071;78;21500;-78